Happy Valley, Nevada
Current Conditions -  °F | °C
As of 9:55 PM on Saturday 20 Dec 2014 (Local Time) from KRNO Reporting Station
Overcast Overcast  
Wind Chill: 51°   Ceiling: 5500
Heat Index: 51°   Visibility: 10mi
Dew Point: 37°   Wind: 18mph
Humidity: 59%   Direction: 330°NNW
Pressure: 30.16"   Gusts: NA
Location:  39.5386°N, 119.749°W
Report Text: KRNO 210555Z 33016KT 10SM BKN055 BKN080 OVC150 11/03 A3016 RMK AO2 SLP197 T01060028 10106 20078 53011
Loading
Personal Weather Stations






























Interactive Weather Map New forecast layout! Learn more

10-Day Weather Forecast

Advertisements
Track Severe Weather on mobile